sensor_id;sensor_type;location;lat;lon;timestamp;P1;durP1;ratioP1;P2;durP2;ratioP2
35891;SDS011;21993;42.672;23.296;2023-11-21T00:02:20;29.20;;;13.87;;
35891;SDS011;21993;42.672;23.296;2023-11-21T00:04:45;21.70;;;13.57;;
35891;SDS011;21993;42.672;23.296;2023-11-21T00:07:12;26.67;;;14.93;;
35891;SDS011;21993;42.672;23.296;2023-11-21T00:09:37;24.23;;;13.73;;
35891;SDS011;21993;42.672;23.296;2023-11-21T00:12:03;26.80;;;12.67;;
35891;SDS011;21993;42.672;23.296;2023-11-21T00:14:29;27.17;;;14.70;;
35891;SDS011;21993;42.672;23.296;2023-11-21T00:16:55;28.90;;;14.63;;
35891;SDS011;21993;42.672;23.296;2023-11-21T00:19:20;26.83;;;14.53;;
35891;SDS011;21993;42.672;23.296;2023-11-21T00:21:46;25.70;;;14.07;;
35891;SDS011;21993;42.672;23.296;2023-11-21T00:24:11;22.57;;;13.17;;
35891;SDS011;21993;42.672;23.296;2023-11-21T00:26:39;23.27;;;14.40;;
35891;SDS011;21993;42.672;23.296;2023-11-21T00:29:05;26.83;;;13.80;;
35891;SDS011;21993;42.672;23.296;2023-11-21T00:31:36;19.97;;;11.97;;
35891;SDS011;21993;42.672;23.296;2023-11-21T00:34:05;23.30;;;12.60;;
35891;SDS011;21993;42.672;23.296;2023-11-21T00:36:31;23.97;;;14.53;;
35891;SDS011;21993;42.672;23.296;2023-11-21T00:38:57;23.23;;;12.17;;
35891;SDS011;21993;42.672;23.296;2023-11-21T00:41:24;20.93;;;12.63;;
35891;SDS011;21993;42.672;23.296;2023-11-21T00:43:52;23.13;;;13.90;;
35891;SDS011;21993;42.672;23.296;2023-11-21T00:46:18;24.50;;;13.40;;
35891;SDS011;21993;42.672;23.296;2023-11-21T00:48:44;29.20;;;14.50;;
35891;SDS011;21993;42.672;23.296;2023-11-21T00:51:09;23.97;;;14.10;;
35891;SDS011;21993;42.672;23.296;2023-11-21T00:53:35;25.20;;;14.10;;
35891;SDS011;21993;42.672;23.296;2023-11-21T00:56:00;25.70;;;15.10;;
35891;SDS011;21993;42.672;23.296;2023-11-21T00:58:26;22.80;;;14.17;;
35891;SDS011;21993;42.672;23.296;2023-11-21T01:00:52;26.07;;;15.27;;
35891;SDS011;21993;42.672;23.296;2023-11-21T01:03:18;24.67;;;14.90;;
35891;SDS011;21993;42.672;23.296;2023-11-21T01:05:43;25.20;;;13.60;;
35891;SDS011;21993;42.672;23.296;2023-11-21T01:08:10;29.43;;;15.60;;
35891;SDS011;21993;42.672;23.296;2023-11-21T01:10:36;24.40;;;14.77;;
35891;SDS011;21993;42.672;23.296;2023-11-21T01:13:01;25.87;;;13.90;;
35891;SDS011;21993;42.672;23.296;2023-11-21T01:15:29;27.00;;;14.47;;
35891;SDS011;21993;42.672;23.296;2023-11-21T01:17:54;28.40;;;15.03;;
35891;SDS011;21993;42.672;23.296;2023-11-21T01:20:20;23.73;;;13.33;;
35891;SDS011;21993;42.672;23.296;2023-11-21T01:22:45;35.97;;;18.10;;
35891;SDS011;21993;42.672;23.296;2023-11-21T01:25:13;30.07;;;14.83;;
35891;SDS011;21993;42.672;23.296;2023-11-21T01:27:39;24.17;;;14.40;;
35891;SDS011;21993;42.672;23.296;2023-11-21T01:30:05;28.60;;;14.93;;
35891;SDS011;21993;42.672;23.296;2023-11-21T01:32:32;26.93;;;15.13;;
35891;SDS011;21993;42.672;23.296;2023-11-21T01:34:59;26.23;;;13.97;;
35891;SDS011;21993;42.672;23.296;2023-11-21T01:37:25;24.03;;;14.53;;
35891;SDS011;21993;42.672;23.296;2023-11-21T01:39:53;28.00;;;16.30;;
35891;SDS011;21993;42.672;23.296;2023-11-21T01:42:20;28.37;;;15.33;;
35891;SDS011;21993;42.672;23.296;2023-11-21T01:44:46;22.67;;;14.83;;
35891;SDS011;21993;42.672;23.296;2023-11-21T01:47:11;24.73;;;14.40;;
35891;SDS011;21993;42.672;23.296;2023-11-21T01:49:38;27.83;;;14.40;;
35891;SDS011;21993;42.672;23.296;2023-11-21T01:52:04;26.33;;;14.20;;
35891;SDS011;21993;42.672;23.296;2023-11-21T01:54:31;23.13;;;15.03;;
35891;SDS011;21993;42.672;23.296;2023-11-21T01:56:58;25.03;;;14.40;;
35891;SDS011;21993;42.672;23.296;2023-11-21T01:59:29;24.63;;;12.77;;
35891;SDS011;21993;42.672;23.296;2023-11-21T02:02:02;25.30;;;13.47;;
35891;SDS011;21993;42.672;23.296;2023-11-21T02:04:30;25.67;;;14.57;;
35891;SDS011;21993;42.672;23.296;2023-11-21T02:06:59;22.60;;;13.50;;
35891;SDS011;21993;42.672;23.296;2023-11-21T02:09:26;25.47;;;14.27;;
35891;SDS011;21993;42.672;23.296;2023-11-21T02:11:53;23.37;;;15.07;;
35891;SDS011;21993;42.672;23.296;2023-11-21T02:14:19;23.23;;;13.17;;
35891;SDS011;21993;42.672;23.296;2023-11-21T02:16:48;22.00;;;12.60;;
35891;SDS011;21993;42.672;23.296;2023-11-21T02:19:20;18.67;;;11.83;;
35891;SDS011;21993;42.672;23.296;2023-11-21T02:21:51;22.10;;;13.80;;
35891;SDS011;21993;42.672;23.296;2023-11-21T02:24:18;21.87;;;12.73;;
35891;SDS011;21993;42.672;23.296;2023-11-21T02:26:47;21.10;;;11.70;;
35891;SDS011;21993;42.672;23.296;2023-11-21T02:29:16;47.13;;;20.97;;
35891;SDS011;21993;42.672;23.296;2023-11-21T02:31:44;41.67;;;18.60;;
35891;SDS011;21993;42.672;23.296;2023-11-21T02:34:16;33.00;;;17.10;;
35891;SDS011;21993;42.672;23.296;2023-11-21T02:36:43;39.20;;;20.13;;
35891;SDS011;21993;42.672;23.296;2023-11-21T02:39:10;33.40;;;18.53;;
35891;SDS011;21993;42.672;23.296;2023-11-21T02:41:39;44.00;;;19.17;;
35891;SDS011;21993;42.672;23.296;2023-11-21T02:44:08;37.40;;;19.33;;
35891;SDS011;21993;42.672;23.296;2023-11-21T02:46:35;30.00;;;16.90;;
35891;SDS011;21993;42.672;23.296;2023-11-21T02:49:02;32.60;;;17.47;;
35891;SDS011;21993;42.672;23.296;2023-11-21T02:51:29;32.13;;;18.53;;
35891;SDS011;21993;42.672;23.296;2023-11-21T02:53:55;33.53;;;16.77;;
35891;SDS011;21993;42.672;23.296;2023-11-21T02:56:27;28.97;;;15.73;;
35891;SDS011;21993;42.672;23.296;2023-11-21T02:58:54;23.53;;;13.73;;
35891;SDS011;21993;42.672;23.296;2023-11-21T03:01:20;25.20;;;14.43;;
35891;SDS011;21993;42.672;23.296;2023-11-21T03:03:46;23.00;;;14.10;;
35891;SDS011;21993;42.672;23.296;2023-11-21T03:06:16;23.23;;;13.80;;
35891;SDS011;21993;42.672;23.296;2023-11-21T03:08:44;24.60;;;15.00;;
35891;SDS011;21993;42.672;23.296;2023-11-21T03:11:09;26.57;;;13.37;;
35891;SDS011;21993;42.672;23.296;2023-11-21T03:13:35;25.53;;;13.73;;
35891;SDS011;21993;42.672;23.296;2023-11-21T03:16:00;23.80;;;13.77;;
35891;SDS011;21993;42.672;23.296;2023-11-21T03:18:25;25.67;;;16.37;;
35891;SDS011;21993;42.672;23.296;2023-11-21T03:20:54;27.23;;;17.57;;
35891;SDS011;21993;42.672;23.296;2023-11-21T03:23:20;24.37;;;13.53;;
35891;SDS011;21993;42.672;23.296;2023-11-21T03:25:45;21.87;;;12.43;;
35891;SDS011;21993;42.672;23.296;2023-11-21T03:28:11;32.63;;;16.10;;
35891;SDS011;21993;42.672;23.296;2023-11-21T03:30:36;26.60;;;17.43;;
35891;SDS011;21993;42.672;23.296;2023-11-21T03:33:02;23.43;;;13.63;;
35891;SDS011;21993;42.672;23.296;2023-11-21T03:35:27;21.70;;;13.67;;
35891;SDS011;21993;42.672;23.296;2023-11-21T03:37:53;33.63;;;16.57;;
35891;SDS011;21993;42.672;23.296;2023-11-21T03:40:19;24.97;;;12.10;;
35891;SDS011;21993;42.672;23.296;2023-11-21T03:42:46;25.77;;;12.90;;
35891;SDS011;21993;42.672;23.296;2023-11-21T03:45:12;22.27;;;13.97;;
35891;SDS011;21993;42.672;23.296;2023-11-21T03:47:38;27.73;;;14.80;;
35891;SDS011;21993;42.672;23.296;2023-11-21T03:50:04;26.67;;;15.30;;
35891;SDS011;21993;42.672;23.296;2023-11-21T03:52:30;27.00;;;15.10;;
35891;SDS011;21993;42.672;23.296;2023-11-21T03:54:55;29.33;;;16.73;;
35891;SDS011;21993;42.672;23.296;2023-11-21T03:57:21;28.83;;;14.80;;
35891;SDS011;21993;42.672;23.296;2023-11-21T03:59:46;27.33;;;15.27;;
35891;SDS011;21993;42.672;23.296;2023-11-21T04:02:12;27.23;;;15.63;;
35891;SDS011;21993;42.672;23.296;2023-11-21T04:04:38;26.07;;;14.70;;
35891;SDS011;21993;42.672;23.296;2023-11-21T04:07:04;24.33;;;14.60;;
35891;SDS011;21993;42.672;23.296;2023-11-21T04:09:30;25.03;;;14.03;;
35891;SDS011;21993;42.672;23.296;2023-11-21T04:11:55;28.90;;;14.67;;
35891;SDS011;21993;42.672;23.296;2023-11-21T04:14:21;25.63;;;14.10;;
35891;SDS011;21993;42.672;23.296;2023-11-21T04:16:47;34.53;;;19.50;;
35891;SDS011;21993;42.672;23.296;2023-11-21T04:19:13;28.70;;;15.17;;
35891;SDS011;21993;42.672;23.296;2023-11-21T04:21:42;35.13;;;19.93;;
35891;SDS011;21993;42.672;23.296;2023-11-21T04:24:07;39.23;;;24.60;;
35891;SDS011;21993;42.672;23.296;2023-11-21T04:26:33;38.27;;;23.73;;
35891;SDS011;21993;42.672;23.296;2023-11-21T04:28:59;35.23;;;21.03;;
35891;SDS011;21993;42.672;23.296;2023-11-21T04:31:24;36.23;;;21.23;;
35891;SDS011;21993;42.672;23.296;2023-11-21T04:33:50;32.33;;;21.03;;
35891;SDS011;21993;42.672;23.296;2023-11-21T04:36:15;31.67;;;19.50;;
35891;SDS011;21993;42.672;23.296;2023-11-21T04:38:40;32.27;;;19.50;;
35891;SDS011;21993;42.672;23.296;2023-11-21T04:41:06;32.30;;;18.90;;
35891;SDS011;21993;42.672;23.296;2023-11-21T04:43:32;28.30;;;18.73;;
35891;SDS011;21993;42.672;23.296;2023-11-21T04:45:58;51.13;;;28.90;;
35891;SDS011;21993;42.672;23.296;2023-11-21T04:48:23;43.23;;;24.40;;
35891;SDS011;21993;42.672;23.296;2023-11-21T04:50:49;30.00;;;16.67;;
35891;SDS011;21993;42.672;23.296;2023-11-21T04:53:14;29.43;;;18.07;;
35891;SDS011;21993;42.672;23.296;2023-11-21T04:55:43;23.03;;;15.77;;
35891;SDS011;21993;42.672;23.296;2023-11-21T04:58:09;29.53;;;16.77;;
35891;SDS011;21993;42.672;23.296;2023-11-21T05:00:36;30.03;;;16.33;;
35891;SDS011;21993;42.672;23.296;2023-11-21T05:03:02;24.53;;;15.13;;
35891;SDS011;21993;42.672;23.296;2023-11-21T05:05:29;26.53;;;15.47;;
35891;SDS011;21993;42.672;23.296;2023-11-21T05:07:55;29.17;;;15.60;;
35891;SDS011;21993;42.672;23.296;2023-11-21T05:10:20;24.57;;;15.20;;
35891;SDS011;21993;42.672;23.296;2023-11-21T05:12:47;28.70;;;15.27;;
35891;SDS011;21993;42.672;23.296;2023-11-21T05:15:15;25.00;;;15.50;;
35891;SDS011;21993;42.672;23.296;2023-11-21T05:17:42;24.27;;;15.50;;
35891;SDS011;21993;42.672;23.296;2023-11-21T05:20:14;25.90;;;14.50;;
35891;SDS011;21993;42.672;23.296;2023-11-21T05:22:45;31.90;;;17.40;;
35891;SDS011;21993;42.672;23.296;2023-11-21T05:25:11;26.30;;;15.60;;
35891;SDS011;21993;42.672;23.296;2023-11-21T05:27:36;28.53;;;16.77;;
35891;SDS011;21993;42.672;23.296;2023-11-21T05:30:03;23.53;;;14.67;;
35891;SDS011;21993;42.672;23.296;2023-11-21T05:32:34;28.67;;;14.93;;
35891;SDS011;21993;42.672;23.296;2023-11-21T05:35:00;26.00;;;14.63;;
35891;SDS011;21993;42.672;23.296;2023-11-21T05:37:26;23.47;;;15.87;;
35891;SDS011;21993;42.672;23.296;2023-11-21T05:39:52;23.77;;;14.53;;
35891;SDS011;21993;42.672;23.296;2023-11-21T05:42:18;26.10;;;14.87;;
35891;SDS011;21993;42.672;23.296;2023-11-21T05:44:44;25.47;;;14.37;;
35891;SDS011;21993;42.672;23.296;2023-11-21T05:47:09;23.80;;;14.73;;
35891;SDS011;21993;42.672;23.296;2023-11-21T05:49:35;24.20;;;15.00;;
35891;SDS011;21993;42.672;23.296;2023-11-21T05:52:02;24.83;;;14.23;;
35891;SDS011;21993;42.672;23.296;2023-11-21T05:54:27;30.70;;;15.13;;
35891;SDS011;21993;42.672;23.296;2023-11-21T05:56:53;31.37;;;17.57;;
35891;SDS011;21993;42.672;23.296;2023-11-21T05:59:19;26.80;;;16.20;;
35891;SDS011;21993;42.672;23.296;2023-11-21T06:01:45;25.67;;;15.27;;
35891;SDS011;21993;42.672;23.296;2023-11-21T06:04:11;25.73;;;14.60;;
35891;SDS011;21993;42.672;23.296;2023-11-21T06:06:36;28.77;;;15.97;;
35891;SDS011;21993;42.672;23.296;2023-11-21T06:09:02;24.90;;;16.17;;
35891;SDS011;21993;42.672;23.296;2023-11-21T06:11:27;23.93;;;16.00;;
35891;SDS011;21993;42.672;23.296;2023-11-21T06:13:53;29.33;;;16.77;;
35891;SDS011;21993;42.672;23.296;2023-11-21T06:16:19;27.03;;;16.07;;
35891;SDS011;21993;42.672;23.296;2023-11-21T06:18:47;42.37;;;18.53;;
35891;SDS011;21993;42.672;23.296;2023-11-21T06:21:13;28.50;;;17.07;;
35891;SDS011;21993;42.672;23.296;2023-11-21T06:23:39;35.10;;;17.97;;
35891;SDS011;21993;42.672;23.296;2023-11-21T06:26:05;28.90;;;17.37;;
35891;SDS011;21993;42.672;23.296;2023-11-21T06:28:31;35.07;;;18.00;;
35891;SDS011;21993;42.672;23.296;2023-11-21T06:30:57;36.27;;;19.63;;
35891;SDS011;21993;42.672;23.296;2023-11-21T06:33:30;28.20;;;17.13;;
35891;SDS011;21993;42.672;23.296;2023-11-21T06:35:56;31.63;;;16.63;;
35891;SDS011;21993;42.672;23.296;2023-11-21T06:38:21;25.53;;;16.87;;
35891;SDS011;21993;42.672;23.296;2023-11-21T06:40:47;29.33;;;16.90;;
35891;SDS011;21993;42.672;23.296;2023-11-21T06:43:13;25.97;;;17.47;;
35891;SDS011;21993;42.672;23.296;2023-11-21T06:45:39;34.67;;;18.07;;
35891;SDS011;21993;42.672;23.296;2023-11-21T06:48:04;32.13;;;17.80;;
35891;SDS011;21993;42.672;23.296;2023-11-21T06:50:30;30.60;;;18.33;;
35891;SDS011;21993;42.672;23.296;2023-11-21T06:52:56;33.80;;;18.47;;
35891;SDS011;21993;42.672;23.296;2023-11-21T06:55:21;35.13;;;18.97;;
35891;SDS011;21993;42.672;23.296;2023-11-21T06:57:47;37.93;;;19.20;;
35891;SDS011;21993;42.672;23.296;2023-11-21T07:00:13;41.27;;;19.67;;
35891;SDS011;21993;42.672;23.296;2023-11-21T07:02:42;32.97;;;21.20;;
35891;SDS011;21993;42.672;23.296;2023-11-21T07:05:08;37.00;;;23.03;;
35891;SDS011;21993;42.672;23.296;2023-11-21T07:07:34;37.53;;;23.37;;
35891;SDS011;21993;42.672;23.296;2023-11-21T07:10:01;39.93;;;23.57;;
35891;SDS011;21993;42.672;23.296;2023-11-21T07:12:28;45.63;;;26.40;;
35891;SDS011;21993;42.672;23.296;2023-11-21T07:14:57;42.10;;;24.77;;
35891;SDS011;21993;42.672;23.296;2023-11-21T07:17:23;40.50;;;24.77;;
35891;SDS011;21993;42.672;23.296;2023-11-21T07:19:49;45.60;;;26.00;;
35891;SDS011;21993;42.672;23.296;2023-11-21T07:22:15;46.70;;;26.20;;
35891;SDS011;21993;42.672;23.296;2023-11-21T07:24:47;47.30;;;24.67;;
35891;SDS011;21993;42.672;23.296;2023-11-21T07:27:15;48.30;;;23.60;;
35891;SDS011;21993;42.672;23.296;2023-11-21T07:29:40;44.43;;;26.03;;
35891;SDS011;21993;42.672;23.296;2023-11-21T07:32:06;37.57;;;20.73;;
35891;SDS011;21993;42.672;23.296;2023-11-21T07:34:33;37.63;;;21.53;;
35891;SDS011;21993;42.672;23.296;2023-11-21T07:36:58;32.07;;;20.43;;
35891;SDS011;21993;42.672;23.296;2023-11-21T07:39:24;37.13;;;19.80;;
35891;SDS011;21993;42.672;23.296;2023-11-21T07:41:50;28.67;;;17.83;;
35891;SDS011;21993;42.672;23.296;2023-11-21T07:44:16;30.07;;;18.47;;
35891;SDS011;21993;42.672;23.296;2023-11-21T07:46:45;32.80;;;17.47;;
35891;SDS011;21993;42.672;23.296;2023-11-21T07:49:11;33.53;;;19.53;;
35891;SDS011;21993;42.672;23.296;2023-11-21T07:51:41;29.43;;;18.70;;
35891;SDS011;21993;42.672;23.296;2023-11-21T07:54:06;35.97;;;20.10;;
35891;SDS011;21993;42.672;23.296;2023-11-21T07:56:32;40.80;;;20.83;;
35891;SDS011;21993;42.672;23.296;2023-11-21T07:58:58;35.50;;;18.20;;
35891;SDS011;21993;42.672;23.296;2023-11-21T08:01:23;33.20;;;19.43;;
35891;SDS011;21993;42.672;23.296;2023-11-21T08:03:49;34.00;;;19.70;;
35891;SDS011;21993;42.672;23.296;2023-11-21T08:06:17;34.43;;;17.80;;
35891;SDS011;21993;42.672;23.296;2023-11-21T08:08:42;28.67;;;17.33;;
35891;SDS011;21993;42.672;23.296;2023-11-21T08:11:08;25.73;;;17.57;;
35891;SDS011;21993;42.672;23.296;2023-11-21T08:13:35;29.17;;;16.70;;
35891;SDS011;21993;42.672;23.296;2023-11-21T08:16:00;28.07;;;17.70;;
35891;SDS011;21993;42.672;23.296;2023-11-21T08:18:30;32.33;;;16.40;;
35891;SDS011;21993;42.672;23.296;2023-11-21T08:20:56;28.30;;;18.00;;
35891;SDS011;21993;42.672;23.296;2023-11-21T08:23:22;30.77;;;18.17;;
35891;SDS011;21993;42.672;23.296;2023-11-21T08:25:51;34.23;;;17.70;;
35891;SDS011;21993;42.672;23.296;2023-11-21T08:28:18;37.20;;;18.87;;
35891;SDS011;21993;42.672;23.296;2023-11-21T08:30:43;30.03;;;18.10;;
35891;SDS011;21993;42.672;23.296;2023-11-21T08:33:09;27.73;;;16.67;;
35891;SDS011;21993;42.672;23.296;2023-11-21T08:35:36;25.40;;;16.87;;
35891;SDS011;21993;42.672;23.296;2023-11-21T08:38:02;32.57;;;20.67;;
35891;SDS011;21993;42.672;23.296;2023-11-21T08:40:28;29.63;;;13.97;;
35891;SDS011;21993;42.672;23.296;2023-11-21T08:42:54;28.60;;;14.37;;
35891;SDS011;21993;42.672;23.296;2023-11-21T08:45:20;23.63;;;15.03;;
35891;SDS011;21993;42.672;23.296;2023-11-21T08:47:47;19.50;;;13.53;;
35891;SDS011;21993;42.672;23.296;2023-11-21T08:50:13;20.47;;;12.47;;
35891;SDS011;21993;42.672;23.296;2023-11-21T08:52:39;20.97;;;13.60;;
35891;SDS011;21993;42.672;23.296;2023-11-21T08:55:05;25.10;;;12.30;;
35891;SDS011;21993;42.672;23.296;2023-11-21T08:57:37;19.07;;;12.07;;
35891;SDS011;21993;42.672;23.296;2023-11-21T09:00:04;16.17;;;10.67;;
35891;SDS011;21993;42.672;23.296;2023-11-21T09:02:36;18.97;;;11.50;;
35891;SDS011;21993;42.672;23.296;2023-11-21T09:05:03;19.77;;;11.07;;
35891;SDS011;21993;42.672;23.296;2023-11-21T09:07:29;17.97;;;10.73;;
35891;SDS011;21993;42.672;23.296;2023-11-21T09:09:55;23.40;;;11.63;;
35891;SDS011;21993;42.672;23.296;2023-11-21T09:12:21;18.27;;;11.63;;
35891;SDS011;21993;42.672;23.296;2023-11-21T09:14:46;19.43;;;12.17;;
35891;SDS011;21993;42.672;23.296;2023-11-21T09:17:12;20.17;;;12.73;;
35891;SDS011;21993;42.672;23.296;2023-11-21T09:19:39;20.97;;;13.27;;
35891;SDS011;21993;42.672;23.296;2023-11-21T09:22:05;18.67;;;12.13;;
35891;SDS011;21993;42.672;23.296;2023-11-21T09:24:34;19.53;;;12.10;;
35891;SDS011;21993;42.672;23.296;2023-11-21T09:26:59;18.27;;;11.77;;
35891;SDS011;21993;42.672;23.296;2023-11-21T09:29:25;31.90;;;18.70;;
35891;SDS011;21993;42.672;23.296;2023-11-21T09:31:51;19.13;;;11.60;;
35891;SDS011;21993;42.672;23.296;2023-11-21T09:34:17;19.60;;;12.27;;
35891;SDS011;21993;42.672;23.296;2023-11-21T09:36:46;24.30;;;12.93;;
35891;SDS011;21993;42.672;23.296;2023-11-21T09:39:12;28.13;;;12.93;;
35891;SDS011;21993;42.672;23.296;2023-11-21T09:41:56;20.10;;;11.23;;
35891;SDS011;21993;42.672;23.296;2023-11-21T09:44:30;23.23;;;11.43;;
35891;SDS011;21993;42.672;23.296;2023-11-21T09:47:00;19.93;;;12.90;;
35891;SDS011;21993;42.672;23.296;2023-11-21T09:49:27;20.07;;;12.87;;
35891;SDS011;21993;42.672;23.296;2023-11-21T09:51:57;23.07;;;12.43;;
35891;SDS011;21993;42.672;23.296;2023-11-21T09:54:26;20.30;;;13.73;;
35891;SDS011;21993;42.672;23.296;2023-11-21T09:56:54;21.97;;;12.63;;
35891;SDS011;21993;42.672;23.296;2023-11-21T09:59:20;24.43;;;14.53;;
35891;SDS011;21993;42.672;23.296;2023-11-21T10:01:46;19.73;;;12.80;;
35891;SDS011;21993;42.672;23.296;2023-11-21T10:04:13;20.37;;;13.63;;
35891;SDS011;21993;42.672;23.296;2023-11-21T10:06:39;21.40;;;13.80;;
35891;SDS011;21993;42.672;23.296;2023-11-21T10:09:11;23.47;;;13.27;;
35891;SDS011;21993;42.672;23.296;2023-11-21T10:11:42;23.27;;;13.63;;
35891;SDS011;21993;42.672;23.296;2023-11-21T10:14:11;20.23;;;12.43;;
35891;SDS011;21993;42.672;23.296;2023-11-21T10:16:38;21.30;;;14.27;;
35891;SDS011;21993;42.672;23.296;2023-11-21T10:19:05;19.07;;;12.43;;
35891;SDS011;21993;42.672;23.296;2023-11-21T10:21:34;22.63;;;14.00;;
35891;SDS011;21993;42.672;23.296;2023-11-21T10:24:00;20.87;;;13.77;;
35891;SDS011;21993;42.672;23.296;2023-11-21T10:26:26;22.77;;;13.67;;
35891;SDS011;21993;42.672;23.296;2023-11-21T10:28:59;23.63;;;14.70;;
35891;SDS011;21993;42.672;23.296;2023-11-21T10:31:32;21.23;;;14.57;;
35891;SDS011;21993;42.672;23.296;2023-11-21T10:34:12;24.13;;;14.83;;
35891;SDS011;21993;42.672;23.296;2023-11-21T10:36:39;27.73;;;16.50;;
35891;SDS011;21993;42.672;23.296;2023-11-21T10:39:04;24.27;;;16.97;;
35891;SDS011;21993;42.672;23.296;2023-11-21T10:41:30;31.50;;;15.47;;
35891;SDS011;21993;42.672;23.296;2023-11-21T10:43:55;26.90;;;16.60;;
35891;SDS011;21993;42.672;23.296;2023-11-21T10:46:21;30.00;;;16.27;;
35891;SDS011;21993;42.672;23.296;2023-11-21T10:48:52;23.30;;;13.27;;
35891;SDS011;21993;42.672;23.296;2023-11-21T10:51:21;29.40;;;16.87;;
35891;SDS011;21993;42.672;23.296;2023-11-21T10:53:49;27.37;;;16.40;;
35891;SDS011;21993;42.672;23.296;2023-11-21T10:56:16;28.77;;;16.50;;
35891;SDS011;21993;42.672;23.296;2023-11-21T10:58:46;30.20;;;17.67;;
35891;SDS011;21993;42.672;23.296;2023-11-21T11:01:14;24.57;;;15.10;;
35891;SDS011;21993;42.672;23.296;2023-11-21T11:03:43;25.10;;;15.10;;
35891;SDS011;21993;42.672;23.296;2023-11-21T11:06:09;24.97;;;15.50;;
35891;SDS011;21993;42.672;23.296;2023-11-21T11:08:38;25.00;;;17.17;;
35891;SDS011;21993;42.672;23.296;2023-11-21T11:11:07;25.17;;;17.90;;
35891;SDS011;21993;42.672;23.296;2023-11-21T11:13:34;26.63;;;17.00;;
35891;SDS011;21993;42.672;23.296;2023-11-21T11:16:01;30.50;;;15.90;;
35891;SDS011;21993;42.672;23.296;2023-11-21T11:18:27;25.77;;;15.67;;
35891;SDS011;21993;42.672;23.296;2023-11-21T11:20:54;26.00;;;14.90;;
35891;SDS011;21993;42.672;23.296;2023-11-21T11:23:39;26.33;;;15.50;;
35891;SDS011;21993;42.672;23.296;2023-11-21T11:26:32;25.27;;;14.87;;
35891;SDS011;21993;42.672;23.296;2023-11-21T11:34:30;18.40;;;12.40;;
35891;SDS011;21993;42.672;23.296;2023-11-21T11:37:02;24.33;;;13.37;;
35891;SDS011;21993;42.672;23.296;2023-11-21T11:39:36;19.40;;;13.33;;
35891;SDS011;21993;42.672;23.296;2023-11-21T11:42:04;21.73;;;13.30;;
35891;SDS011;21993;42.672;23.296;2023-11-21T11:50:06;23.00;;;14.13;;
35891;SDS011;21993;42.672;23.296;2023-11-21T11:52:41;25.50;;;15.90;;
35891;SDS011;21993;42.672;23.296;2023-11-21T11:55:12;26.47;;;16.60;;
35891;SDS011;21993;42.672;23.296;2023-11-21T11:57:39;30.73;;;18.87;;
35891;SDS011;21993;42.672;23.296;2023-11-21T12:00:19;30.30;;;17.23;;
35891;SDS011;21993;42.672;23.296;2023-11-21T12:02:56;29.47;;;17.17;;
35891;SDS011;21993;42.672;23.296;2023-11-21T12:05:24;26.43;;;16.43;;
35891;SDS011;21993;42.672;23.296;2023-11-21T12:10:24;24.90;;;16.73;;
35891;SDS011;21993;42.672;23.296;2023-11-21T12:12:51;34.27;;;18.77;;
35891;SDS011;21993;42.672;23.296;2023-11-21T12:15:21;30.27;;;18.70;;
35891;SDS011;21993;42.672;23.296;2023-11-21T12:17:48;27.47;;;18.23;;
35891;SDS011;21993;42.672;23.296;2023-11-21T12:20:15;28.43;;;18.87;;
35891;SDS011;21993;42.672;23.296;2023-11-21T12:22:44;26.63;;;18.97;;
35891;SDS011;21993;42.672;23.296;2023-11-21T12:25:14;26.13;;;18.40;;
35891;SDS011;21993;42.672;23.296;2023-11-21T12:27:43;30.00;;;19.73;;
35891;SDS011;21993;42.672;23.296;2023-11-21T12:30:11;29.73;;;18.90;;
35891;SDS011;21993;42.672;23.296;2023-11-21T12:32:40;29.47;;;20.23;;
35891;SDS011;21993;42.672;23.296;2023-11-21T12:35:07;28.13;;;19.03;;
35891;SDS011;21993;42.672;23.296;2023-11-21T12:37:35;36.57;;;20.43;;
35891;SDS011;21993;42.672;23.296;2023-11-21T12:40:03;32.87;;;22.20;;
35891;SDS011;21993;42.672;23.296;2023-11-21T12:42:30;34.57;;;23.20;;
35891;SDS011;21993;42.672;23.296;2023-11-21T12:47:45;48.07;;;24.33;;
35891;SDS011;21993;42.672;23.296;2023-11-21T12:50:20;37.40;;;25.23;;
35891;SDS011;21993;42.672;23.296;2023-11-21T12:52:51;40.53;;;25.80;;
35891;SDS011;21993;42.672;23.296;2023-11-21T12:55:21;41.70;;;25.07;;
35891;SDS011;21993;42.672;23.296;2023-11-21T12:57:49;41.93;;;27.83;;
35891;SDS011;21993;42.672;23.296;2023-11-21T13:00:29;39.80;;;24.93;;
35891;SDS011;21993;42.672;23.296;2023-11-21T13:02:58;39.10;;;24.70;;
35891;SDS011;21993;42.672;23.296;2023-11-21T13:05:27;39.30;;;24.93;;
35891;SDS011;21993;42.672;23.296;2023-11-21T13:07:56;38.87;;;23.83;;
35891;SDS011;21993;42.672;23.296;2023-11-21T13:10:26;39.73;;;23.47;;
35891;SDS011;21993;42.672;23.296;2023-11-21T13:12:56;39.87;;;23.87;;
35891;SDS011;21993;42.672;23.296;2023-11-21T13:15:23;47.10;;;24.63;;
35891;SDS011;21993;42.672;23.296;2023-11-21T13:17:50;40.00;;;23.90;;
35891;SDS011;21993;42.672;23.296;2023-11-21T13:20:16;37.20;;;23.70;;
35891;SDS011;21993;42.672;23.296;2023-11-21T13:22:48;34.83;;;23.73;;
35891;SDS011;21993;42.672;23.296;2023-11-21T13:25:16;39.77;;;24.87;;
35891;SDS011;21993;42.672;23.296;2023-11-21T13:27:45;40.03;;;25.00;;
35891;SDS011;21993;42.672;23.296;2023-11-21T13:30:11;35.03;;;23.87;;
35891;SDS011;21993;42.672;23.296;2023-11-21T13:32:48;41.57;;;25.33;;
35891;SDS011;21993;42.672;23.296;2023-11-21T13:35:19;39.87;;;23.90;;
35891;SDS011;21993;42.672;23.296;2023-11-21T13:37:55;37.37;;;23.20;;
35891;SDS011;21993;42.672;23.296;2023-11-21T13:40:25;39.13;;;24.57;;
35891;SDS011;21993;42.672;23.296;2023-11-21T13:42:55;38.33;;;23.97;;
35891;SDS011;21993;42.672;23.296;2023-11-21T13:45:25;38.50;;;23.73;;
35891;SDS011;21993;42.672;23.296;2023-11-21T13:47:52;43.87;;;24.43;;
35891;SDS011;21993;42.672;23.296;2023-11-21T13:50:27;41.50;;;25.83;;
35891;SDS011;21993;42.672;23.296;2023-11-21T13:53:01;49.03;;;26.40;;
35891;SDS011;21993;42.672;23.296;2023-11-21T13:55:33;39.57;;;26.73;;
35891;SDS011;21993;42.672;23.296;2023-11-21T13:58:00;41.17;;;26.00;;
35891;SDS011;21993;42.672;23.296;2023-11-21T14:00:29;44.93;;;27.50;;
35891;SDS011;21993;42.672;23.296;2023-11-21T14:03:21;43.80;;;25.70;;
35891;SDS011;21993;42.672;23.296;2023-11-21T14:05:48;42.80;;;26.63;;
35891;SDS011;21993;42.672;23.296;2023-11-21T14:08:19;43.13;;;27.17;;
35891;SDS011;21993;42.672;23.296;2023-11-21T14:10:53;44.87;;;26.93;;
35891;SDS011;21993;42.672;23.296;2023-11-21T14:13:24;43.43;;;25.37;;
35891;SDS011;21993;42.672;23.296;2023-11-21T14:15:51;40.80;;;26.37;;
35891;SDS011;21993;42.672;23.296;2023-11-21T14:18:23;45.40;;;28.00;;
35891;SDS011;21993;42.672;23.296;2023-11-21T14:21:09;44.03;;;26.93;;
35891;SDS011;21993;42.672;23.296;2023-11-21T14:23:35;42.53;;;27.43;;
35891;SDS011;21993;42.672;23.296;2023-11-21T14:26:03;38.17;;;25.60;;
35891;SDS011;21993;42.672;23.296;2023-11-21T14:28:31;42.20;;;27.20;;